Time;durP1;ratioP1;P1;durP2;ratioP2;P2;SDS_P1;SDS_P2;PMS_P1;PMS_P2;Temp;Humidity;BMP_temperature;BMP_pressure;BME280_temperature;BME280_humidity;BME280_pressure;Samples;Min_cycle;Max_cycle;Signal;HPM_P1;HPM_P2
2023/03/24 00:01:56;;;;;;;11.23;2.38;;;;;;;;;;5051282;28;20056;-38
2023/03/24 00:04:23;;;;;;;2.33;1.98;;;;;;;;;;5049359;28;20111;-38
2023/03/24 00:06:49;;;;;;;4.15;2.30;;;;;;;;;;5047356;28;20132;-38
2023/03/24 00:09:15;;;;;;;3.33;1.85;;;;;;;;;;5048509;28;20971;-42
2023/03/24 00:11:41;;;;;;;5.20;2.45;;;;;;;;;;5047529;28;20037;-39
2023/03/24 00:14:10;;;;;;;4.13;2.45;;;;;;;;;;5046387;28;20049;-38
2023/03/24 00:16:37;;;;;;;2.28;1.80;;;;;;;;;;5045701;28;20117;-43
2023/03/24 00:19:03;;;;;;;2.72;1.90;;;;;;;;;;5046337;28;20037;-39
2023/03/24 00:21:28;;;;;;;3.33;1.80;;;;;;;;;;5054263;28;20675;-42
2023/03/24 00:23:57;;;;;;;3.60;2.05;;;;;;;;;;5059772;28;20134;-38
2023/03/24 00:26:23;;;;;;;4.43;2.38;;;;;;;;;;5060729;28;20044;-38
2023/03/24 00:28:49;;;;;;;2.58;1.80;;;;;;;;;;5063508;28;20031;-38
2023/03/24 00:31:15;;;;;;;7.70;2.00;;;;;;;;;;5062708;28;20032;-38
2023/03/24 00:33:42;;;;;;;1.88;1.70;;;;;;;;;;5064068;28;20064;-38
2023/03/24 00:36:13;;;;;;;2.53;1.88;;;;;;;;;;5061277;28;20041;-38
2023/03/24 00:38:40;;;;;;;3.45;2.00;;;;;;;;;;5058069;28;20029;-38
2023/03/24 00:41:07;;;;;;;2.53;1.75;;;;;;;;;;5063084;28;20033;-38
2023/03/24 00:43:33;;;;;;;7.97;1.98;;;;;;;;;;5061208;28;20041;-38
2023/03/24 00:46:05;;;;;;;6.25;1.67;;;;;;;;;;5066195;28;20037;-38
2023/03/24 00:48:31;;;;;;;4.28;2.13;;;;;;;;;;5063449;28;20029;-38
2023/03/24 00:50:57;;;;;;;6.15;2.10;;;;;;;;;;5059011;28;20036;-38
2023/03/24 00:53:24;;;;;;;4.97;1.90;;;;;;;;;;5061572;28;20064;-38
2023/03/24 00:55:50;;;;;;;3.17;1.88;;;;;;;;;;5058408;28;20033;-38
2023/03/24 00:58:18;;;;;;;6.70;2.00;;;;;;;;;;5060248;28;20068;-39
2023/03/24 01:00:49;;;;;;;7.93;2.17;;;;;;;;;;5063415;28;20036;-39
2023/03/24 01:03:16;;;;;;;4.05;2.22;;;;;;;;;;5061125;28;20052;-38
2023/03/24 01:05:47;;;;;;;3.33;1.75;;;;;;;;;;5059612;28;20050;-38
2023/03/24 01:08:14;;;;;;;2.72;1.80;;;;;;;;;;5061834;28;20033;-38
2023/03/24 01:10:49;;;;;;;3.58;1.50;;;;;;;;;;5063289;28;20047;-38
2023/03/24 01:13:16;;;;;;;3.10;1.80;;;;;;;;;;5063394;28;20059;-38
2023/03/24 01:15:43;;;;;;;3.80;1.50;;;;;;;;;;5053430;28;20036;-42
2023/03/24 01:18:11;;;;;;;3.97;1.60;;;;;;;;;;5047238;28;20021;-39
2023/03/24 01:20:39;;;;;;;2.78;1.73;;;;;;;;;;5044229;28;20052;-38
2023/03/24 01:23:05;;;;;;;3.55;1.45;;;;;;;;;;5043949;28;20032;-39
2023/03/24 01:25:31;;;;;;;6.97;2.20;;;;;;;;;;5044537;28;20379;-39
2023/03/24 01:27:56;;;;;;;3.30;1.58;;;;;;;;;;5043740;28;20033;-38
2023/03/24 01:30:24;;;;;;;2.63;2.05;;;;;;;;;;5045876;28;20041;-38
2023/03/24 01:32:50;;;;;;;1.70;1.60;;;;;;;;;;5042404;28;20486;-38
2023/03/24 01:35:16;;;;;;;1.95;1.42;;;;;;;;;;5042900;28;20054;-38
2023/03/24 01:37:42;;;;;;;5.03;1.77;;;;;;;;;;5041369;28;20029;-38
2023/03/24 01:40:10;;;;;;;6.57;1.70;;;;;;;;;;5041691;28;20021;-38
2023/03/24 01:42:38;;;;;;;4.78;1.60;;;;;;;;;;5037248;28;20080;-38
2023/03/24 01:45:40;;;;;;;3.95;2.08;;;;;;;;;;5043790;28;20032;-39
2023/03/24 01:48:14;;;;;;;7.03;2.08;;;;;;;;;;5043842;28;20029;-38
2023/03/24 01:50:45;;;;;;;1.92;1.73;;;;;;;;;;5044424;28;20444;-38
2023/03/24 01:53:11;;;;;;;4.63;1.92;;;;;;;;;;5038513;28;20492;-41
2023/03/24 01:55:37;;;;;;;5.30;1.77;;;;;;;;;;5041783;28;20060;-38
2023/03/24 01:58:04;;;;;;;2.88;1.85;;;;;;;;;;5038001;28;20367;-38
2023/03/24 02:00:30;;;;;;;2.60;1.77;;;;;;;;;;5042080;28;20045;-38
2023/03/24 02:03:00;;;;;;;3.95;2.10;;;;;;;;;;5043561;28;20033;-38
2023/03/24 02:05:29;;;;;;;4.85;2.40;;;;;;;;;;5042221;28;20053;-38
2023/03/24 02:08:21;;;;;;;3.50;1.90;;;;;;;;;;5044447;28;20390;-38
2023/03/24 02:10:48;;;;;;;2.78;1.95;;;;;;;;;;5049817;28;20055;-39
2023/03/24 02:13:13;;;;;;;5.65;2.50;;;;;;;;;;5047700;28;20055;-38
2023/03/24 02:16:18;;;;;;;3.53;1.85;;;;;;;;;;5047099;28;20037;-38
2023/03/24 02:18:53;;;;;;;2.75;2.47;;;;;;;;;;5042319;28;20041;-39
2023/03/24 02:22:07;;;;;;;7.10;2.42;;;;;;;;;;5040860;28;20049;-38
2023/03/24 02:24:53;;;;;;;4.38;2.10;;;;;;;;;;5041130;28;20033;-39
2023/03/24 02:27:58;;;;;;;4.70;2.20;;;;;;;;;;5039995;28;20087;-38
2023/03/24 02:31:00;;;;;;;3.00;2.20;;;;;;;;;;5042395;28;20061;-38
2023/03/24 02:34:05;;;;;;;5.22;2.38;;;;;;;;;;5035103;28;20710;-41
2023/03/24 02:36:33;;;;;;;6.00;2.30;;;;;;;;;;5043311;28;20048;-38
2023/03/24 02:39:33;;;;;;;5.93;2.50;;;;;;;;;;5036456;28;20033;-38
2023/03/24 02:42:23;;;;;;;6.10;2.17;;;;;;;;;;5042240;28;20528;-39
2023/03/24 02:45:16;;;;;;;4.88;2.35;;;;;;;;;;5041407;28;20036;-38
2023/03/24 02:48:00;;;;;;;2.65;1.88;;;;;;;;;;5038221;28;20083;-38
2023/03/24 02:50:39;;;;;;;3.55;1.73;;;;;;;;;;5036820;28;20045;-38
2023/03/24 02:53:18;;;;;;;3.47;1.83;;;;;;;;;;5039969;28;20044;-38
2023/03/24 02:56:15;;;;;;;4.90;2.28;;;;;;;;;;5043259;28;20046;-38
2023/03/24 02:58:48;;;;;;;3.35;1.85;;;;;;;;;;5043365;28;20083;-38
2023/03/24 03:01:27;;;;;;;2.45;1.88;;;;;;;;;;5045041;28;20118;-38
2023/03/24 03:03:57;;;;;;;2.83;1.90;;;;;;;;;;5043542;28;20039;-38
2023/03/24 03:06:32;;;;;;;4.15;2.53;;;;;;;;;;5043938;28;20812;-38
2023/03/24 03:09:01;;;;;;;2.58;1.70;;;;;;;;;;5043271;28;20032;-37
2023/03/24 03:11:27;;;;;;;3.85;2.10;;;;;;;;;;5048752;28;20402;-39
2023/03/24 03:14:01;;;;;;;8.32;2.10;;;;;;;;;;5039516;28;20045;-40
2023/03/24 03:16:38;;;;;;;4.15;1.80;;;;;;;;;;5043768;28;20394;-38
2023/03/24 03:19:21;;;;;;;2.35;1.88;;;;;;;;;;5044079;28;20389;-38
2023/03/24 03:21:49;;;;;;;3.08;1.90;;;;;;;;;;5040933;28;20045;-38
2023/03/24 03:24:25;;;;;;;9.15;2.70;;;;;;;;;;5045305;28;20142;-38
2023/03/24 03:27:13;;;;;;;4.03;1.60;;;;;;;;;;5043536;28;20060;-41
2023/03/24 03:29:42;;;;;;;5.18;1.77;;;;;;;;;;5041510;28;20089;-38
2023/03/24 03:32:12;;;;;;;3.65;1.70;;;;;;;;;;5044051;28;20143;-38
2023/03/24 03:34:59;;;;;;;4.45;1.80;;;;;;;;;;5044704;28;20037;-38
2023/03/24 03:37:25;;;;;;;3.55;1.58;;;;;;;;;;5041557;28;20060;-38
2023/03/24 03:40:05;;;;;;;4.28;1.95;;;;;;;;;;5044234;28;20041;-38
2023/03/24 03:42:31;;;;;;;1.75;1.38;;;;;;;;;;5057377;28;20139;-38
2023/03/24 03:44:56;;;;;;;3.25;1.70;;;;;;;;;;5061679;28;20584;-38
2023/03/24 03:47:22;;;;;;;4.97;1.73;;;;;;;;;;5056391;28;20386;-39
2023/03/24 03:49:48;;;;;;;1.90;1.80;;;;;;;;;;5062080;28;20111;-38
2023/03/24 03:52:15;;;;;;;3.50;1.98;;;;;;;;;;5057470;28;20037;-38
2023/03/24 03:54:42;;;;;;;2.22;1.67;;;;;;;;;;5057809;28;20032;-38
2023/03/24 03:57:09;;;;;;;4.10;1.70;;;;;;;;;;5058144;28;20049;-38
2023/03/24 03:59:37;;;;;;;4.50;1.70;;;;;;;;;;5061469;28;20073;-38
2023/03/24 04:02:28;;;;;;;2.42;1.40;;;;;;;;;;5057396;28;20158;-37
2023/03/24 04:05:28;;;;;;;3.50;1.85;;;;;;;;;;5059451;28;20067;-39
2023/03/24 04:08:31;;;;;;;3.25;1.60;;;;;;;;;;5050554;28;20054;-38
2023/03/24 04:11:28;;;;;;;2.85;1.55;;;;;;;;;;5062397;28;20036;-38
2023/03/24 04:14:31;;;;;;;6.72;1.83;;;;;;;;;;5061781;28;20136;-38
2023/03/24 04:17:19;;;;;;;4.55;1.70;;;;;;;;;;5060879;28;20139;-38
2023/03/24 04:20:04;;;;;;;5.22;1.67;;;;;;;;;;5058400;28;20024;-38
2023/03/24 04:22:55;;;;;;;4.55;1.98;;;;;;;;;;5062270;28;20106;-38
2023/03/24 04:26:00;;;;;;;2.08;1.60;;;;;;;;;;5059733;28;20048;-38
2023/03/24 04:28:36;;;;;;;3.72;1.80;;;;;;;;;;5065736;28;20055;-40
2023/03/24 04:31:13;;;;;;;4.25;1.90;;;;;;;;;;5053280;28;20037;-38
2023/03/24 04:33:49;;;;;;;2.85;1.75;;;;;;;;;;5049417;28;20444;-40
2023/03/24 04:36:41;;;;;;;4.32;1.80;;;;;;;;;;5051884;28;20143;-38
2023/03/24 04:39:13;;;;;;;5.55;1.90;;;;;;;;;;5058744;28;20566;-38
2023/03/24 04:41:41;;;;;;;6.40;2.80;;;;;;;;;;5056801;28;20052;-40
2023/03/24 04:44:09;;;;;;;3.92;2.20;;;;;;;;;;5060512;28;20414;-38
2023/03/24 04:46:35;;;;;;;3.50;1.90;;;;;;;;;;5048771;28;20094;-38
2023/03/24 04:49:01;;;;;;;3.22;1.67;;;;;;;;;;5039240;28;20033;-38
2023/03/24 04:51:27;;;;;;;6.47;2.05;;;;;;;;;;5045851;28;20047;-38
2023/03/24 04:53:53;;;;;;;3.10;1.83;;;;;;;;;;5042984;28;20393;-37
2023/03/24 04:56:26;;;;;;;2.65;1.75;;;;;;;;;;5040881;28;23032;-38
2023/03/24 04:58:51;;;;;;;4.15;1.70;;;;;;;;;;5042070;28;20033;-38
2023/03/24 05:01:20;;;;;;;2.05;1.55;;;;;;;;;;5046441;28;20785;-38
2023/03/24 05:03:46;;;;;;;4.40;1.90;;;;;;;;;;5045572;28;20107;-38
2023/03/24 05:06:11;;;;;;;2.28;1.65;;;;;;;;;;5051066;28;20155;-38
2023/03/24 05:08:37;;;;;;;3.15;1.65;;;;;;;;;;5063961;28;20036;-38
2023/03/24 05:11:03;;;;;;;1.98;1.50;;;;;;;;;;5060192;28;20090;-38
2023/03/24 05:13:28;;;;;;;4.28;1.90;;;;;;;;;;5046150;28;20447;-39
2023/03/24 05:15:54;;;;;;;3.67;1.73;;;;;;;;;;5051253;28;20319;-38
2023/03/24 05:18:19;;;;;;;3.75;2.00;;;;;;;;;;5061281;28;20036;-38
2023/03/24 05:20:45;;;;;;;2.47;1.80;;;;;;;;;;5056649;28;20044;-38
2023/03/24 05:23:11;;;;;;;4.35;1.90;;;;;;;;;;5049534;28;20457;-38
2023/03/24 05:25:36;;;;;;;4.00;1.85;;;;;;;;;;5045387;28;20026;-38
2023/03/24 05:28:01;;;;;;;3.00;1.67;;;;;;;;;;5048693;28;20033;-38
2023/03/24 05:30:27;;;;;;;2.88;2.03;;;;;;;;;;5045129;28;20041;-38
2023/03/24 05:32:52;;;;;;;2.58;1.70;;;;;;;;;;5043253;28;20036;-38
2023/03/24 05:35:18;;;;;;;8.20;1.80;;;;;;;;;;5047881;28;20485;-38
2023/03/24 05:37:43;;;;;;;3.65;1.67;;;;;;;;;;5063141;28;20036;-38
2023/03/24 05:40:09;;;;;;;3.60;1.90;;;;;;;;;;5062796;28;20581;-38
2023/03/24 05:42:35;;;;;;;7.35;2.30;;;;;;;;;;5061378;28;20058;-41
2023/03/24 05:45:00;;;;;;;6.40;1.77;;;;;;;;;;5059250;28;20514;-38
2023/03/24 05:47:26;;;;;;;4.18;2.08;;;;;;;;;;5049379;28;20409;-38
2023/03/24 05:49:52;;;;;;;3.83;1.90;;;;;;;;;;5051581;28;20107;-43
2023/03/24 05:52:19;;;;;;;4.25;1.75;;;;;;;;;;5059828;28;20064;-38
2023/03/24 05:54:48;;;;;;;5.43;1.70;;;;;;;;;;5063953;28;20384;-38
2023/03/24 05:57:15;;;;;;;3.85;2.22;;;;;;;;;;5060481;28;20553;-38
2023/03/24 05:59:41;;;;;;;1.95;1.77;;;;;;;;;;5061639;28;20060;-38
2023/03/24 06:02:06;;;;;;;2.20;1.95;;;;;;;;;;5043059;28;20088;-38
2023/03/24 06:04:32;;;;;;;2.92;2.30;;;;;;;;;;5037558;28;20474;-38
2023/03/24 06:06:57;;;;;;;6.43;2.25;;;;;;;;;;5042225;28;20033;-38
2023/03/24 06:09:34;;;;;;;4.43;2.17;;;;;;;;;;5043286;28;20087;-38
2023/03/24 06:12:03;;;;;;;4.68;2.30;;;;;;;;;;5041564;28;20056;-38
2023/03/24 06:14:29;;;;;;;4.68;2.45;;;;;;;;;;5043024;28;20032;-38
2023/03/24 06:16:58;;;;;;;5.57;2.15;;;;;;;;;;5044081;28;20095;-38
2023/03/24 06:19:24;;;;;;;4.00;1.90;;;;;;;;;;5044400;28;20124;-39
2023/03/24 06:21:49;;;;;;;4.53;2.20;;;;;;;;;;5043594;28;20382;-38
2023/03/24 06:24:18;;;;;;;4.07;1.80;;;;;;;;;;5044557;28;20028;-38
2023/03/24 06:26:44;;;;;;;4.68;1.70;;;;;;;;;;5041069;28;20041;-38
2023/03/24 06:29:11;;;;;;;7.28;2.35;;;;;;;;;;5041564;28;20025;-38
2023/03/24 06:31:38;;;;;;;3.75;2.03;;;;;;;;;;5041320;28;20073;-38
2023/03/24 06:34:03;;;;;;;8.23;1.80;;;;;;;;;;5043770;28;21067;-38
2023/03/24 06:36:29;;;;;;;5.50;1.90;;;;;;;;;;5043102;28;20077;-43
2023/03/24 06:38:55;;;;;;;5.97;1.85;;;;;;;;;;5044340;28;20036;-41
2023/03/24 06:41:21;;;;;;;5.00;1.65;;;;;;;;;;5042208;28;20041;-39
2023/03/24 06:43:47;;;;;;;5.55;1.70;;;;;;;;;;5042810;28;20033;-41
2023/03/24 06:46:12;;;;;;;8.50;1.80;;;;;;;;;;5040913;28;20513;-39
2023/03/24 06:48:38;;;;;;;3.22;1.52;;;;;;;;;;5040905;28;20516;-39
2023/03/24 06:51:04;;;;;;;8.45;2.00;;;;;;;;;;5040870;28;20037;-39
2023/03/24 06:53:29;;;;;;;4.43;1.40;;;;;;;;;;5040199;28;20037;-39
2023/03/24 06:55:55;;;;;;;5.20;1.90;;;;;;;;;;5043746;28;20041;-39
2023/03/24 06:58:21;;;;;;;8.52;2.15;;;;;;;;;;5045221;28;20063;-39
2023/03/24 07:00:47;;;;;;;5.28;1.65;;;;;;;;;;5041914;28;20118;-39
2023/03/24 07:03:14;;;;;;;3.20;1.45;;;;;;;;;;5042942;28;20024;-39
2023/03/24 07:05:42;;;;;;;3.53;1.60;;;;;;;;;;5045196;28;20036;-39
2023/03/24 07:08:08;;;;;;;5.38;1.80;;;;;;;;;;5060481;28;20020;-39
2023/03/24 07:10:35;;;;;;;4.32;1.80;;;;;;;;;;5057790;28;20037;-39
2023/03/24 07:13:02;;;;;;;4.38;1.63;;;;;;;;;;5054401;28;20060;-40
2023/03/24 07:15:28;;;;;;;1.98;1.38;;;;;;;;;;5050112;28;20047;-39
2023/03/24 07:17:53;;;;;;;4.07;1.83;;;;;;;;;;5045018;28;20094;-39
2023/03/24 07:20:19;;;;;;;4.30;1.90;;;;;;;;;;5044220;28;20048;-39
2023/03/24 07:22:45;;;;;;;3.42;1.83;;;;;;;;;;5057689;28;20119;-39
2023/03/24 07:25:13;;;;;;;6.57;1.80;;;;;;;;;;5057532;28;20100;-39
2023/03/24 07:27:39;;;;;;;7.25;1.65;;;;;;;;;;5057829;28;20028;-40
2023/03/24 07:30:06;;;;;;;6.75;1.70;;;;;;;;;;5057051;28;20029;-39
2023/03/24 07:32:38;;;;;;;2.10;1.70;;;;;;;;;;5046679;28;20040;-39
2023/03/24 07:35:05;;;;;;;5.73;1.73;;;;;;;;;;5041821;28;20654;-39
2023/03/24 07:37:30;;;;;;;5.30;1.50;;;;;;;;;;5043867;28;20454;-39
2023/03/24 07:39:56;;;;;;;3.92;1.38;;;;;;;;;;5051385;28;20079;-38
2023/03/24 07:42:21;;;;;;;4.22;1.55;;;;;;;;;;5055800;28;20043;-40
2023/03/24 07:44:47;;;;;;;8.77;1.92;;;;;;;;;;5057843;28;20062;-41
2023/03/24 07:47:12;;;;;;;11.13;1.80;;;;;;;;;;5039323;28;20033;-38
2023/03/24 07:49:37;;;;;;;7.25;1.70;;;;;;;;;;5039724;28;20500;-39
2023/03/24 07:52:05;;;;;;;10.30;2.08;;;;;;;;;;5042167;28;20046;-39
2023/03/24 07:54:32;;;;;;;8.02;1.75;;;;;;;;;;5040804;28;20098;-38
2023/03/24 07:56:57;;;;;;;4.63;1.88;;;;;;;;;;5046203;28;20037;-39
2023/03/24 07:59:23;;;;;;;11.13;1.90;;;;;;;;;;5042186;28;20085;-39
2023/03/24 08:01:48;;;;;;;6.18;1.58;;;;;;;;;;5055930;28;20486;-42
2023/03/24 08:04:14;;;;;;;5.60;1.70;;;;;;;;;;5061551;28;20029;-39
2023/03/24 08:06:42;;;;;;;8.02;1.75;;;;;;;;;;5050882;28;20087;-38
2023/03/24 08:09:08;;;;;;;5.50;1.40;;;;;;;;;;5045006;28;20485;-39
2023/03/24 08:11:34;;;;;;;12.13;2.05;;;;;;;;;;5046598;28;20042;-38
2023/03/24 08:14:00;;;;;;;4.93;1.20;;;;;;;;;;5047832;28;20047;-38
2023/03/24 08:16:25;;;;;;;10.95;2.28;;;;;;;;;;5045774;28;20049;-39
2023/03/24 08:18:51;;;;;;;10.00;2.00;;;;;;;;;;5045978;28;20021;-38
2023/03/24 08:21:16;;;;;;;7.70;1.63;;;;;;;;;;5042452;28;20132;-38
2023/03/24 08:23:42;;;;;;;12.25;2.08;;;;;;;;;;5043372;28;20029;-37
2023/03/24 08:26:09;;;;;;;5.57;1.98;;;;;;;;;;5046714;28;20041;-38
2023/03/24 08:28:35;;;;;;;4.40;1.38;;;;;;;;;;5047599;28;20052;-38
2023/03/24 08:31:01;;;;;;;10.63;1.55;;;;;;;;;;5044578;28;20045;-38
2023/03/24 08:33:27;;;;;;;4.90;1.65;;;;;;;;;;5045533;28;20037;-38
2023/03/24 08:35:56;;;;;;;5.43;1.58;;;;;;;;;;5047585;28;20045;-37
2023/03/24 08:38:29;;;;;;;9.15;1.50;;;;;;;;;;5043760;28;20535;-38
2023/03/24 08:40:57;;;;;;;6.10;1.65;;;;;;;;;;5049926;28;20045;-38
2023/03/24 08:43:24;;;;;;;6.70;1.80;;;;;;;;;;5061199;28;20124;-38
2023/03/24 08:45:50;;;;;;;6.28;1.50;;;;;;;;;;5054860;28;20041;-38
2023/03/24 08:48:15;;;;;;;7.32;1.85;;;;;;;;;;5043446;28;20473;-38
2023/03/24 08:50:41;;;;;;;8.90;2.22;;;;;;;;;;5040004;28;20056;-38
2023/03/24 08:53:08;;;;;;;7.90;1.60;;;;;;;;;;5045512;28;20037;-38
2023/03/24 08:55:36;;;;;;;6.75;1.70;;;;;;;;;;5040281;28;20406;-38
2023/03/24 08:58:01;;;;;;;12.43;2.00;;;;;;;;;;5045272;28;20501;-37
2023/03/24 09:00:27;;;;;;;8.60;1.83;;;;;;;;;;5039206;28;20052;-38
2023/03/24 09:02:54;;;;;;;13.50;2.15;;;;;;;;;;5045245;28;20544;-38
2023/03/24 09:05:21;;;;;;;5.25;1.83;;;;;;;;;;5040826;28;20113;-38
2023/03/24 09:07:48;;;;;;;6.05;2.60;;;;;;;;;;5038474;28;20045;-39
2023/03/24 09:10:14;;;;;;;7.55;1.90;;;;;;;;;;5039750;28;20032;-38
2023/03/24 09:12:41;;;;;;;12.20;2.97;;;;;;;;;;5042986;28;20045;-38
2023/03/24 09:15:08;;;;;;;9.95;1.73;;;;;;;;;;5035701;28;20021;-38
2023/03/24 09:17:34;;;;;;;6.07;2.03;;;;;;;;;;5039450;28;20178;-38
2023/03/24 09:19:59;;;;;;;7.13;1.60;;;;;;;;;;5042467;28;20040;-38
2023/03/24 09:22:25;;;;;;;7.20;2.00;;;;;;;;;;5044612;28;20021;-38
2023/03/24 09:24:50;;;;;;;4.25;1.60;;;;;;;;;;5041057;28;20025;-38
2023/03/24 09:27:16;;;;;;;8.98;1.67;;;;;;;;;;5043916;28;20037;-37
2023/03/24 09:29:42;;;;;;;5.47;1.65;;;;;;;;;;5043691;28;20177;-41
2023/03/24 09:32:08;;;;;;;5.30;1.48;;;;;;;;;;5043651;28;20576;-38
2023/03/24 09:34:35;;;;;;;7.07;1.73;;;;;;;;;;5040141;28;20028;-39
2023/03/24 09:37:00;;;;;;;10.80;2.03;;;;;;;;;;5038357;28;20509;-37
2023/03/24 09:39:26;;;;;;;9.55;2.10;;;;;;;;;;5042939;28;20037;-38
2023/03/24 09:41:54;;;;;;;9.40;2.25;;;;;;;;;;5040183;28;20425;-38
2023/03/24 09:44:26;;;;;;;10.23;2.28;;;;;;;;;;5043228;28;20029;-39
2023/03/24 09:46:58;;;;;;;5.63;2.08;;;;;;;;;;5043296;28;20037;-38
2023/03/24 09:49:28;;;;;;;8.45;1.98;;;;;;;;;;5043651;28;20029;-38
2023/03/24 09:52:01;;;;;;;8.32;1.77;;;;;;;;;;5039275;28;20382;-38
2023/03/24 09:54:36;;;;;;;10.25;1.92;;;;;;;;;;5043829;28;20029;-41
2023/03/24 09:57:02;;;;;;;7.78;2.08;;;;;;;;;;5041415;28;20037;-38
2023/03/24 09:59:28;;;;;;;8.25;2.40;;;;;;;;;;5041909;28;20386;-38
2023/03/24 10:01:54;;;;;;;6.65;1.65;;;;;;;;;;5042091;28;20034;-37
2023/03/24 10:04:23;;;;;;;8.93;1.92;;;;;;;;;;5043413;28;20036;-38
2023/03/24 10:06:54;;;;;;;11.80;1.85;;;;;;;;;;5039328;28;20048;-38
2023/03/24 10:09:27;;;;;;;5.55;1.98;;;;;;;;;;5040899;28;20025;-38
2023/03/24 10:12:13;;;;;;;6.60;1.88;;;;;;;;;;5041098;28;20068;-38
2023/03/24 10:15:17;;;;;;;6.35;1.70;;;;;;;;;;5041926;28;20040;-38
2023/03/24 10:18:00;;;;;;;10.25;2.47;;;;;;;;;;5040702;28;20513;-38
2023/03/24 10:20:52;;;;;;;10.65;1.90;;;;;;;;;;5038795;28;20061;-39
2023/03/24 10:23:32;;;;;;;9.68;2.38;;;;;;;;;;5037377;28;20045;-37
2023/03/24 10:26:20;;;;;;;9.27;2.05;;;;;;;;;;5040868;28;20048;-37
2023/03/24 10:29:01;;;;;;;8.40;1.73;;;;;;;;;;5038473;28;20041;-38
2023/03/24 10:31:35;;;;;;;16.27;2.67;;;;;;;;;;5035659;28;20041;-38
2023/03/24 10:34:00;;;;;;;11.13;2.78;;;;;;;;;;5039817;28;20048;-38
2023/03/24 10:36:27;;;;;;;7.97;2.70;;;;;;;;;;5041660;28;20041;-38
2023/03/24 10:38:53;;;;;;;13.60;2.28;;;;;;;;;;5038025;28;20045;-38
2023/03/24 10:41:22;;;;;;;10.10;2.00;;;;;;;;;;5039493;28;20564;-38
2023/03/24 10:43:50;;;;;;;13.00;2.33;;;;;;;;;;5036280;28;20032;-40
2023/03/24 10:46:18;;;;;;;9.10;2.20;;;;;;;;;;5039501;28;20044;-38
2023/03/24 10:48:49;;;;;;;11.45;2.53;;;;;;;;;;5039329;28;20052;-38
2023/03/24 10:51:17;;;;;;;17.98;2.90;;;;;;;;;;5041047;28;20041;-38
2023/03/24 10:53:46;;;;;;;11.48;2.03;;;;;;;;;;5038768;28;20025;-39
2023/03/24 10:56:16;;;;;;;9.82;2.22;;;;;;;;;;5038467;28;20052;-38
2023/03/24 10:58:42;;;;;;;12.93;2.80;;;;;;;;;;5036170;28;20021;-38
2023/03/24 11:01:26;;;;;;;12.73;2.80;;;;;;;;;;5037387;28;20033;-38
2023/03/24 11:03:59;;;;;;;8.15;2.40;;;;;;;;;;5031772;28;20033;-38
2023/03/24 11:06:25;;;;;;;9.82;1.83;;;;;;;;;;5042623;28;20032;-38
2023/03/24 11:09:17;;;;;;;7.57;2.13;;;;;;;;;;5044378;28;20657;-38
2023/03/24 11:11:43;;;;;;;;;;;;;;;;;;5059600;28;20057;-38
2023/03/24 11:14:24;;;;;;;14.50;2.83;;;;;;;;;;5047262;28;19951;-38
2023/03/24 11:16:50;;;;;;;9.88;2.72;;;;;;;;;;5052472;28;20037;-38
2023/03/24 11:19:22;;;;;;;8.52;2.72;;;;;;;;;;5059731;28;20025;-39
2023/03/24 11:21:49;;;;;;;;;;;;;;;;;;5045645;28;20087;-38
2023/03/24 11:24:17;;;;;;;6.60;2.28;;;;;;;;;;5042888;28;19921;-38
2023/03/24 11:26:51;;;;;;;8.88;2.88;;;;;;;;;;5041817;28;20029;-37
2023/03/24 11:29:23;;;;;;;12.25;2.63;;;;;;;;;;5043685;28;20034;-38
2023/03/24 11:32:02;;;;;;;;;;;;;;;;;;5042325;28;20037;-38
2023/03/24 11:34:33;;;;;;;10.55;2.10;;;;;;;;;;5049164;28;20007;-37
2023/03/24 11:37:21;;;;;;;10.68;2.60;;;;;;;;;;5046865;28;20444;-38
2023/03/24 11:40:11;;;;;;;10.38;2.63;;;;;;;;;;5044690;28;20059;-38
2023/03/24 11:42:46;;;;;;;12.38;2.38;;;;;;;;;;5044572;28;20067;-38
2023/03/24 11:45:35;;;;;;;10.80;2.47;;;;;;;;;;5043429;28;20033;-38
2023/03/24 11:48:03;;;;;;;24.88;3.35;;;;;;;;;;5046496;28;20547;-38
2023/03/24 11:50:32;;;;;;;8.68;2.33;;;;;;;;;;5044577;28;20053;-38
2023/03/24 11:53:16;;;;;;;9.65;3.05;;;;;;;;;;5047991;28;20509;-38
2023/03/24 11:56:07;;;;;;;10.68;2.70;;;;;;;;;;5045765;28;20041;-38
2023/03/24 11:58:41;;;;;;;10.25;2.28;;;;;;;;;;4995030;28;20044;-38
2023/03/24 12:01:21;;;;;;;10.63;2.35;;;;;;;;;;5001928;28;20108;-38
2023/03/24 12:03:56;;;;;;;8.68;2.78;;;;;;;;;;5003752;28;20042;-37
2023/03/24 12:06:42;;;;;;;13.40;2.75;;;;;;;;;;5007003;28;20038;-38
2023/03/24 12:09:18;;;;;;;18.90;3.15;;;;;;;;;;5004522;28;20073;-37
2023/03/24 12:12:02;;;;;;;11.13;2.88;;;;;;;;;;5005078;28;20870;-38
2023/03/24 12:14:59;;;;;;;12.07;3.47;;;;;;;;;;5005927;28;20049;-38
2023/03/24 12:17:40;;;;;;;8.18;2.65;;;;;;;;;;5006148;28;20407;-37
2023/03/24 12:20:29;;;;;;;16.13;3.67;;;;;;;;;;5004273;28;20049;-37
2023/03/24 12:23:03;;;;;;;13.00;3.10;;;;;;;;;;4997701;28;20066;-37
2023/03/24 12:25:31;;;;;;;12.65;2.45;;;;;;;;;;5005958;28;20149;-38
2023/03/24 12:28:12;;;;;;;13.77;3.10;;;;;;;;;;5006109;28;20080;-38
2023/03/24 12:31:07;;;;;;;9.18;2.72;;;;;;;;;;5003211;28;20409;-37
2023/03/24 12:33:51;;;;;;;10.73;2.80;;;;;;;;;;5003213;28;20535;-38
2023/03/24 12:36:30;;;;;;;18.10;3.05;;;;;;;;;;5037188;28;20045;-38
2023/03/24 12:39:11;;;;;;;11.38;2.15;;;;;;;;;;5040818;28;20037;-38
2023/03/24 12:42:04;;;;;;;11.43;2.70;;;;;;;;;;5043313;28;20638;-38
2023/03/24 12:44:51;;;;;;;17.27;3.17;;;;;;;;;;5046694;28;20025;-38
2023/03/24 12:47:28;;;;;;;14.48;2.88;;;;;;;;;;5040776;28;20048;-38
2023/03/24 12:50:17;;;;;;;9.18;2.28;;;;;;;;;;5040377;28;20043;-40
2023/03/24 12:52:58;;;;;;;14.55;2.78;;;;;;;;;;5060550;28;20073;-38
2023/03/24 12:55:33;;;;;;;12.52;2.92;;;;;;;;;;5059237;28;20045;-38
2023/03/24 12:58:09;;;;;;;22.98;2.97;;;;;;;;;;5060294;28;20033;-37
2023/03/24 13:00:55;;;;;;;14.02;3.10;;;;;;;;;;5063831;28;20037;-38
2023/03/24 13:03:29;;;;;;;16.75;3.80;;;;;;;;;;5054380;28;20036;-40
2023/03/24 13:05:58;;;;;;;25.60;4.32;;;;;;;;;;5057792;28;20053;-41
2023/03/24 13:08:31;;;;;;;10.45;2.72;;;;;;;;;;5064176;28;20028;-38
2023/03/24 13:11:05;;;;;;;13.32;2.88;;;;;;;;;;5062406;28;20056;-38
2023/03/24 13:13:36;;;;;;;15.45;2.78;;;;;;;;;;5060360;28;20052;-38
2023/03/24 13:16:15;;;;;;;18.58;3.10;;;;;;;;;;5052719;28;20068;-39
2023/03/24 13:18:48;;;;;;;13.07;3.05;;;;;;;;;;5043584;28;20102;-38
2023/03/24 13:21:17;;;;;;;17.77;3.67;;;;;;;;;;5042447;28;20067;-38
2023/03/24 13:23:53;;;;;;;10.13;2.70;;;;;;;;;;5039188;28;20025;-38
2023/03/24 13:26:25;;;;;;;12.73;3.03;;;;;;;;;;5042463;28;20041;-37
2023/03/24 13:29:40;;;;;;;10.93;2.75;;;;;;;;;;5043222;28;20025;-38
2023/03/24 13:32:18;;;;;;;11.48;2.50;;;;;;;;;;5041657;28;20045;-38
2023/03/24 13:34:51;;;;;;;9.90;2.72;;;;;;;;;;5043692;28;20373;-38
2023/03/24 13:37:23;;;;;;;11.27;2.33;;;;;;;;;;5041179;28;20485;-40
2023/03/24 13:39:54;;;;;;;14.10;2.95;;;;;;;;;;5040167;28;20118;-38
2023/03/24 13:42:36;;;;;;;10.10;2.80;;;;;;;;;;5042874;28;20033;-38
2023/03/24 13:45:05;;;;;;;15.73;2.58;;;;;;;;;;5044637;28;20033;-42
2023/03/24 13:48:05;;;;;;;17.52;3.63;;;;;;;;;;5046223;28;20053;-37
2023/03/24 13:50:32;;;;;;;15.27;3.03;;;;;;;;;;5039338;28;20056;-38
2023/03/24 13:53:05;;;;;;;14.48;3.17;;;;;;;;;;5041901;28;20045;-38
2023/03/24 13:55:35;;;;;;;17.52;3.42;;;;;;;;;;5047249;28;20504;-38
2023/03/24 13:58:44;;;;;;;14.57;3.33;;;;;;;;;;5057828;28;20041;-38
2023/03/24 14:01:09;;;;;;;15.95;3.65;;;;;;;;;;5032358;28;20107;-38
2023/03/24 14:03:40;;;;;;;18.88;2.85;;;;;;;;;;5017333;28;20029;-38
2023/03/24 14:06:16;;;;;;;23.95;3.28;;;;;;;;;;5017729;28;20625;-38
2023/03/24 14:08:50;;;;;;;10.75;3.22;;;;;;;;;;5022750;28;20056;-37
2023/03/24 14:11:34;;;;;;;16.23;3.45;;;;;;;;;;5044433;28;20044;-38
2023/03/24 14:14:13;;;;;;;19.52;3.85;;;;;;;;;;5060914;28;20045;-38
2023/03/24 14:17:14;;;;;;;11.23;3.15;;;;;;;;;;5063287;28;20044;-38
2023/03/24 14:20:07;;;;;;;14.90;3.35;;;;;;;;;;5061221;28;20547;-38
2023/03/24 14:22:35;;;;;;;16.75;3.17;;;;;;;;;;5064141;28;20191;-38
2023/03/24 14:25:05;;;;;;;24.83;3.45;;;;;;;;;;5064586;28;20047;-38
2023/03/24 14:27:39;;;;;;;16.13;3.05;;;;;;;;;;5064286;28;20024;-42
2023/03/24 14:30:23;;;;;;;16.90;3.08;;;;;;;;;;5062838;28;20074;-40
2023/03/24 14:32:52;;;;;;;20.17;3.58;;;;;;;;;;5063470;28;20040;-38
2023/03/24 14:35:40;;;;;;;22.80;3.83;;;;;;;;;;5061494;28;20076;-38
2023/03/24 14:38:15;;;;;;;15.68;3.10;;;;;;;;;;5062242;28;20500;-38
2023/03/24 14:40:48;;;;;;;12.23;3.47;;;;;;;;;;5057513;28;20044;-41
2023/03/24 14:43:23;;;;;;;18.50;4.38;;;;;;;;;;5043212;28;20040;-38
2023/03/24 14:45:58;;;;;;;18.13;3.60;;;;;;;;;;5040134;28;20466;-38
2023/03/24 14:48:36;;;;;;;15.55;3.20;;;;;;;;;;5041645;28;20032;-38
2023/03/24 14:51:18;;;;;;;16.25;3.78;;;;;;;;;;5046407;28;20105;-38
2023/03/24 14:53:44;;;;;;;16.52;3.45;;;;;;;;;;5059924;28;20119;-38
2023/03/24 14:56:15;;;;;;;12.65;4.53;;;;;;;;;;5054897;28;20124;-38
2023/03/24 14:58:45;;;;;;;10.65;3.80;;;;;;;;;;5042015;28;20186;-38
2023/03/24 15:01:11;;;;;;;14.50;3.30;;;;;;;;;;5039168;28;20045;-38
2023/03/24 15:04:00;;;;;;;20.95;3.67;;;;;;;;;;5041276;28;20037;-38
2023/03/24 15:06:26;;;;;;;16.02;3.17;;;;;;;;;;5041778;28;20044;-38
2023/03/24 15:09:00;;;;;;;14.70;3.47;;;;;;;;;;5041689;28;20025;-38
2023/03/24 15:11:35;;;;;;;18.15;3.92;;;;;;;;;;5042723;28;20079;-38
2023/03/24 15:14:05;;;;;;;21.33;4.28;;;;;;;;;;5038779;28;20405;-38